LEZG/ZAZ METAR and TAF weather

Enter ICAO airport designator
Station Type Date Time Source
LEZG METAR 2019/12/08 07:00 UTC NOAA

LEZG 080700Z 14001KT 0100 R30R/0350N R12R/0300N R30L/0250N R12L/0350N FG VV001 03/03 Q1024


Station Type Date Time Source
LEZG Decoded METAR 2019/12/08 07:00 UTC NOAA

Zaragoza / Aeropuerto, Spain (LEZG) 41-40N 001-01W 258M
Dec 08, 2019 - 02:00 AM EST / 2019.12.08 0700 UTC
Wind: from the SE (140 degrees) at 1 MPH (1 KT):0
Visibility: less than 1 mile:0
Sky conditions: obscured
Weather: fog
Temperature: 37 F (3 C)
Dew Point: 37 F (3 C)
Relative Humidity: 100%
Pressure (altimeter): 30.24 in. Hg (1024 hPa)
ob: LEZG 080700Z 14001KT 0100 R30R/0350N R12R/0300N R30L/0250N R12L/0350N FG VV001 03/03 Q1024
cycle: 7

Station Type Date Time Source
LEZG TAF 2019/12/08 06:27 UTC NOAA

TAF LEZG 080500Z 0806/0906 28007KT 9999 FEW040 TX15/0813Z TN05/0806Z
TEMPO 0806/0807 2000 BR BKN010
TEMPO 0815/0820 4000 RA BKN014 OVC030

Example: see airport list